Cookies

¿Aceptas nuestras cookies?

Aceptar
VAM | Vabird-VBD

Virtual Vabird! Aerolínea Virtual de habla hispana, desde 2011




 INFORMACIÓN METAR y TAF
METAR FOR LEAB
ADDS - METARS form results

(0116 UTC 27 September 2021)
Data provider http://aviationweather.gov/metar/data/
 
METAR text: LEAB 270100Z 14004KT CAVOK 13/11 Q1023 NOSIG
Conditions at: LEAB (ALBACETE (CIV/MI, ES) observed 0100 UTC 27 September 2021
Temperature: 13.0°C (55°F)
Dewpoint: 11.0°C (52°F) [RH = 88%]
Pressure (altimeter): 30.21 inches Hg (1023.0 mb)
Winds: from the SE (140 degrees) at 5 MPH (4 knots; 2.1 m/s)
Visibility: 6 or more miles (10+ km)
Ceiling: ceiling and visibility are OK
Clouds: unknown
Weather: no significant weather observed at this time

METAR text: LEAB 270030Z 17002KT CAVOK 13/11 Q1023 NOSIG
Conditions at: LEAB (ALBACETE (CIV/MI, ES) observed 0030 UTC 27 September 2021
Temperature: 13.0°C (55°F)
Dewpoint: 11.0°C (52°F) [RH = 88%]
Pressure (altimeter): 30.21 inches Hg (1023.0 mb)
Winds: from the S (170 degrees) at 2 MPH (2 knots; 1.0 m/s)
Visibility: 6 or more miles (10+ km)
Ceiling: ceiling and visibility are OK
Clouds: unknown
Weather: no significant weather observed at this time

Forecast for: LEAB (ALBACETE (CIV/MI, ES)
Text: TAF LEAB 262300Z 2700/2724 VRB04KT CAVOK TX28/2715Z TN12/2706Z
Forecast period: 0000 to 2100 UTC 27 September 2021
Forecast type: FROM: standard forecast or significant change
Winds: variable direction winds at 5 MPH (4 knots; 2.1 m/s)
Visibility: 6 or more miles (10+ km)
Ceiling: unknown
Clouds: missing
Weather: no significant weather forecast for this period
Text: BECMG 2721/2723 15007KT
Forecast period: 2100 UTC 27 September 2021 to 0000 UTC 28 September 2021
Forecast type: BECOMING: Conditions expected to become as follows by 2300 UTC 27 September 2021
Winds: from the SSE (150 degrees) at 8 MPH (7 knots; 3.6 m/s)
Visibility: 6 or more miles (10+ km)
Ceiling: unknown
Clouds: missing
Weather: no significant weather forecast for this period

 MAPA DE AEROPUERTO

 INFORMACIÓN DE PISTA